createdAt,value
2018-07-02T00:03:34.974Z,80.90
2018-07-02T00:06:14.150Z,80.70
2018-07-02T00:08:42.059Z,81.80
2018-07-02T00:11:10.800Z,81.20
2018-07-02T00:16:06.846Z,81.80
2018-07-02T00:18:34.752Z,82.00
2018-07-02T00:21:02.729Z,81.90
2018-07-02T00:23:30.640Z,82.00
2018-07-02T00:25:58.593Z,81.70
2018-07-02T00:28:26.519Z,81.60
2018-07-02T00:30:54.420Z,82.00
2018-07-02T00:35:50.996Z,81.70
2018-07-02T00:40:46.619Z,82.20
2018-07-02T00:43:14.505Z,82.30
2018-07-02T00:48:10.844Z,81.80
2018-07-02T00:50:39.270Z,81.70
2018-07-02T00:53:07.822Z,82.20
2018-07-02T00:58:03.522Z,82.90
2018-07-02T01:00:31.426Z,82.90
2018-07-02T01:02:59.394Z,82.90
2018-07-02T01:05:27.298Z,83.20
2018-07-02T01:07:56.050Z,83.10
2018-07-02T01:10:23.983Z,83.30
2018-07-02T01:12:51.877Z,83.40
2018-07-02T01:15:20.159Z,83.10
2018-07-02T01:17:48.890Z,82.80
2018-07-02T01:20:16.819Z,83.00
2018-07-02T01:22:44.699Z,83.90
2018-07-02T01:25:12.588Z,83.10
2018-07-02T01:27:40.523Z,83.40
2018-07-02T01:30:08.481Z,83.20
2018-07-02T01:32:36.758Z,83.10
2018-07-02T01:35:04.651Z,82.80
2018-07-02T01:37:32.559Z,82.80
2018-07-02T01:40:00.534Z,83.00
2018-07-02T01:42:28.959Z,82.90
2018-07-02T01:44:56.844Z,82.10
2018-07-02T01:47:24.755Z,82.60
2018-07-02T01:49:52.749Z,82.90
2018-07-02T01:54:49.074Z,82.70
2018-07-02T01:57:16.942Z,82.60
2018-07-02T02:02:12.678Z,82.80
2018-07-02T02:04:40.972Z,82.60
2018-07-02T02:07:08.892Z,82.40
2018-07-02T02:12:05.357Z,82.80
2018-07-02T02:14:33.315Z,82.70
2018-07-02T02:17:01.220Z,83.30
2018-07-02T02:24:24.589Z,83.90
2018-07-02T02:26:52.475Z,83.50
2018-07-02T02:29:20.364Z,83.70
2018-07-02T02:36:43.725Z,83.50
2018-07-02T02:41:39.549Z,83.40
2018-07-02T02:44:07.864Z,84.00
2018-07-02T02:46:35.904Z,84.20
2018-07-02T02:51:32.465Z,83.80
2018-07-02T02:54:01.048Z,83.90
2018-07-02T03:01:24.680Z,83.80
2018-07-02T03:03:52.594Z,83.70
2018-07-02T03:06:20.514Z,83.90
2018-07-02T03:08:48.486Z,83.70
2018-07-02T03:11:16.444Z,83.70
2018-07-02T03:13:44.371Z,83.90
2018-07-02T03:16:12.798Z,84.40
2018-07-02T03:18:40.707Z,84.30
2018-07-02T03:21:10.044Z,83.90
2018-07-02T03:23:37.992Z,84.40
2018-07-02T03:26:05.987Z,84.30
2018-07-02T03:28:34.033Z,84.40
2018-07-02T03:33:30.679Z,85.00
2018-07-02T03:35:58.675Z,84.50
2018-07-02T03:38:27.243Z,84.50
2018-07-02T03:43:23.335Z,84.70
2018-07-02T03:45:51.263Z,84.70
2018-07-02T03:48:19.351Z,84.70
2018-07-02T03:50:47.294Z,85.80
2018-07-02T03:53:15.906Z,86.00
2018-07-02T03:55:43.837Z,85.60
2018-07-02T04:00:39.548Z,85.60
2018-07-02T04:05:35.619Z,85.80
2018-07-02T04:12:59.222Z,85.90
2018-07-02T04:15:27.228Z,86.10
2018-07-02T04:17:55.197Z,86.00
2018-07-02T04:20:23.677Z,86.20
2018-07-02T04:22:52.788Z,86.40
2018-07-02T04:25:20.885Z,86.50
2018-07-02T04:27:49.211Z,86.90
2018-07-02T04:30:17.902Z,87.10
2018-07-02T04:32:45.853Z,87.50
2018-07-02T04:35:14.603Z,87.90
2018-07-02T04:37:42.938Z,88.10
2018-07-02T04:40:11.446Z,88.00
2018-07-02T04:42:40.025Z,88.10
2018-07-02T04:45:08.540Z,87.90
2018-07-02T04:52:32.542Z,88.60
2018-07-02T04:55:00.466Z,89.10
2018-07-02T04:57:28.743Z,88.30
2018-07-02T04:59:56.689Z,88.00
2018-07-02T05:02:24.652Z,88.30
2018-07-02T05:04:53.550Z,88.60
2018-07-02T05:14:44.804Z,89.30
2018-07-02T05:17:12.707Z,88.10
2018-07-02T05:22:08.924Z,88.70
2018-07-02T05:27:05.262Z,88.80
2018-07-02T05:29:33.560Z,88.80
2018-07-02T05:36:57.033Z,88.80
2018-07-02T05:39:25.020Z,87.40
2018-07-02T05:46:49.947Z,85.60
2018-07-02T05:51:46.655Z,84.90
2018-07-02T05:54:14.577Z,84.90
2018-07-02T05:59:10.719Z,83.90
2018-07-02T06:04:07.418Z,82.50
2018-07-02T06:06:35.970Z,82.20
2018-07-02T06:09:07.167Z,81.70
2018-07-02T06:11:35.085Z,81.60
2018-07-02T06:14:03.217Z,82.30
2018-07-02T06:18:59.015Z,81.10
2018-07-02T06:21:26.951Z,79.80
2018-07-02T06:23:55.331Z,79.80
2018-07-02T06:26:24.062Z,79.90
2018-07-02T06:28:52.200Z,78.80
2018-07-02T06:31:20.131Z,79.20
2018-07-02T06:33:48.037Z,80.60
2018-07-02T06:36:16.049Z,79.40
2018-07-02T06:41:12.240Z,79.40
2018-07-02T06:43:40.210Z,79.40
2018-07-02T06:46:08.583Z,77.50
2018-07-02T06:51:05.147Z,68.60
2018-07-02T06:53:34.032Z,68.30
2018-07-02T06:56:02.026Z,68.30
2018-07-02T06:58:30.089Z,68.00
2018-07-02T07:00:59.013Z,68.30
2018-07-02T07:03:26.936Z,64.00
2018-07-02T07:05:54.973Z,64.10
2018-07-02T07:08:22.939Z,65.60
2018-07-02T07:10:50.873Z,67.70
2018-07-02T07:13:18.849Z,61.20
2018-07-02T07:15:46.765Z,60.20
2018-07-02T07:23:10.801Z,59.70
2018-07-02T07:25:39.930Z,59.10
2018-07-02T07:28:07.805Z,58.60
2018-07-02T07:30:35.684Z,57.10
2018-07-02T07:33:05.218Z,57.00
2018-07-02T07:38:01.084Z,59.30
2018-07-02T07:40:29.042Z,57.50
2018-07-02T07:42:56.962Z,57.90
2018-07-02T07:45:24.884Z,57.90
2018-07-02T07:47:53.347Z,58.00
2018-07-02T07:55:17.701Z,56.80
2018-07-02T07:57:46.501Z,57.50
2018-07-02T08:00:14.510Z,55.70
2018-07-02T08:05:10.600Z,55.80
2018-07-02T08:07:38.508Z,55.80
2018-07-02T08:10:07.430Z,54.70
2018-07-02T08:12:35.378Z,53.20
2018-07-02T08:17:31.491Z,53.80
2018-07-02T08:19:59.768Z,53.30
2018-07-02T08:22:27.739Z,54.80
2018-07-02T08:24:56.076Z,51.60
2018-07-02T08:27:24.810Z,49.00
2018-07-02T08:29:52.988Z,49.90
2018-07-02T08:32:22.025Z,51.20
2018-07-02T08:34:50.511Z,51.70
2018-07-02T08:37:18.474Z,52.20
2018-07-02T08:39:46.436Z,51.90
2018-07-02T08:42:14.765Z,53.10
2018-07-02T08:44:42.780Z,52.20
2018-07-02T08:49:39.256Z,53.70
2018-07-02T08:52:07.172Z,52.90
2018-07-02T08:54:35.064Z,51.20
2018-07-02T09:01:58.692Z,52.20
2018-07-02T09:04:26.593Z,50.30
2018-07-02T09:06:54.550Z,51.90
2018-07-02T09:09:22.695Z,51.30
2018-07-02T09:11:51.456Z,50.90
2018-07-02T09:16:47.568Z,51.30
2018-07-02T09:19:15.894Z,53.20
2018-07-02T09:21:44.674Z,52.90
2018-07-02T09:29:08.939Z,51.70
2018-07-02T09:31:36.956Z,51.50
2018-07-02T09:36:33.016Z,50.60
2018-07-02T09:39:00.947Z,51.70
2018-07-02T09:43:56.705Z,52.40
2018-07-02T09:48:52.647Z,51.00
2018-07-02T09:51:20.639Z,51.30
2018-07-02T09:53:48.608Z,48.80
2018-07-02T09:56:16.491Z,50.70
2018-07-02T09:58:44.748Z,50.90
2018-07-02T10:03:41.186Z,48.20
2018-07-02T10:08:37.090Z,49.30
2018-07-02T10:11:05.055Z,51.30
2018-07-02T10:13:32.994Z,50.70
2018-07-02T10:16:00.916Z,49.80
2018-07-02T10:20:56.652Z,47.30
2018-07-02T10:25:53.463Z,48.70
2018-07-02T10:28:21.383Z,48.60
2018-07-02T10:30:50.005Z,48.40
2018-07-02T10:33:18.479Z,48.30
2018-07-02T10:35:47.874Z,47.50
2018-07-02T10:38:16.294Z,50.00
2018-07-02T10:43:12.092Z,44.40
2018-07-02T10:45:40.682Z,46.60
2018-07-02T10:48:08.866Z,49.10
2018-07-02T10:50:38.759Z,49.20
2018-07-02T10:55:36.069Z,46.60
2018-07-02T10:58:04.279Z,45.50
2018-07-02T11:00:32.273Z,46.50
2018-07-02T11:03:00.250Z,47.90
2018-07-02T11:05:28.991Z,46.70
2018-07-02T11:10:27.603Z,44.70
2018-07-02T11:12:57.039Z,45.40
2018-07-02T11:15:25.065Z,45.10
2018-07-02T11:17:53.165Z,45.70
2018-07-02T11:25:19.201Z,47.10
2018-07-02T11:27:47.404Z,46.50
2018-07-02T11:30:16.096Z,49.30
2018-07-02T11:32:44.068Z,46.50
2018-07-02T11:35:12.915Z,46.90
2018-07-02T11:37:40.890Z,46.90
2018-07-02T11:40:09.690Z,46.70
2018-07-02T11:47:34.991Z,47.90
2018-07-02T11:50:03.551Z,43.80
2018-07-02T11:52:31.517Z,46.00
2018-07-02T11:54:59.524Z,46.90
2018-07-02T11:57:28.237Z,45.50
2018-07-02T11:59:56.379Z,44.80
2018-07-02T12:02:24.286Z,44.60
2018-07-02T12:07:19.950Z,45.50
2018-07-02T12:09:48.313Z,46.20
2018-07-02T12:12:16.284Z,48.40
2018-07-02T12:14:44.334Z,48.80
2018-07-02T12:19:40.764Z,46.10
2018-07-02T12:22:08.888Z,46.30
2018-07-02T12:24:36.794Z,46.70
2018-07-02T12:27:05.133Z,46.50
2018-07-02T12:29:33.349Z,47.00
2018-07-02T12:32:01.263Z,46.00
2018-07-02T12:34:29.146Z,44.60
2018-07-02T12:36:57.411Z,47.00
2018-07-02T12:39:25.445Z,45.70
2018-07-02T12:41:53.661Z,46.80
2018-07-02T12:44:21.621Z,44.80
2018-07-02T12:49:17.692Z,47.10
2018-07-02T12:51:45.666Z,47.00
2018-07-02T12:54:14.652Z,45.50
2018-07-02T12:56:42.684Z,47.80
2018-07-02T12:59:10.751Z,49.10
2018-07-02T13:01:38.667Z,50.30
2018-07-02T13:04:06.580Z,46.40
2018-07-02T13:06:34.539Z,46.10
2018-07-02T13:09:04.181Z,48.00
2018-07-02T13:11:32.116Z,45.30
2018-07-02T13:14:00.069Z,45.10
2018-07-02T13:16:28.043Z,47.60
2018-07-02T13:18:55.964Z,48.20
2018-07-02T13:21:23.872Z,48.00
2018-07-02T13:23:51.758Z,46.80
2018-07-02T13:28:48.050Z,47.00
2018-07-02T13:31:15.964Z,47.10
2018-07-02T13:33:44.179Z,45.90
2018-07-02T13:38:40.684Z,47.10
2018-07-02T13:41:08.608Z,47.20
2018-07-02T13:43:36.899Z,47.50
2018-07-02T13:46:04.951Z,47.80
2018-07-02T13:48:32.848Z,47.30
2018-07-02T13:51:01.511Z,47.00
2018-07-02T13:53:30.834Z,47.80
2018-07-02T13:55:58.755Z,47.80
2018-07-02T13:58:27.372Z,45.40
2018-07-02T14:00:55.413Z,46.40
2018-07-02T14:03:23.354Z,43.80
2018-07-02T14:08:56.938Z,46.80
2018-07-02T14:11:25.308Z,45.00
2018-07-02T14:13:53.320Z,46.60
2018-07-02T14:16:21.226Z,45.00
2018-07-02T14:21:17.117Z,46.30
2018-07-02T14:23:44.994Z,45.90
2018-07-02T14:26:13.664Z,44.40
2018-07-02T14:28:41.640Z,43.10
2018-07-02T14:31:09.551Z,44.90
2018-07-02T14:33:38.207Z,43.10
2018-07-02T14:36:06.683Z,43.30
2018-07-02T14:38:34.706Z,43.90
2018-07-02T14:41:02.757Z,43.30
2018-07-02T14:43:30.712Z,43.60
2018-07-02T14:45:58.782Z,44.20
2018-07-02T14:48:28.348Z,43.90
2018-07-02T14:50:56.298Z,45.00
2018-07-02T14:55:52.273Z,45.20
2018-07-02T14:58:20.179Z,42.50
2018-07-02T15:00:48.370Z,44.90
2018-07-02T15:03:16.327Z,43.80
2018-07-02T15:05:44.752Z,44.20
2018-07-02T15:08:12.996Z,45.60
2018-07-02T15:10:41.159Z,45.10
2018-07-02T15:23:00.349Z,44.20
2018-07-02T15:25:35.176Z,44.40
2018-07-02T15:28:03.907Z,45.40
2018-07-02T15:32:59.537Z,46.80
2018-07-02T15:35:27.506Z,44.10
2018-07-02T15:40:23.328Z,42.80
2018-07-02T15:42:51.427Z,44.40
2018-07-02T15:45:19.322Z,44.80
2018-07-02T15:47:47.346Z,43.90
2018-07-02T15:52:44.114Z,46.30
2018-07-02T15:57:39.948Z,47.20
2018-07-02T16:02:36.293Z,43.20
2018-07-02T16:07:33.195Z,45.80
2018-07-02T16:10:01.132Z,44.50
2018-07-02T16:12:29.102Z,44.60
2018-07-02T16:14:57.407Z,46.60
2018-07-02T16:17:26.063Z,44.70
2018-07-02T16:19:54.468Z,45.10
2018-07-02T16:22:22.415Z,44.60
2018-07-02T16:24:50.986Z,44.60
2018-07-02T16:27:18.929Z,45.10
2018-07-02T16:29:46.843Z,44.80
2018-07-02T16:32:14.736Z,45.20
2018-07-02T16:34:43.007Z,44.00
2018-07-02T16:37:10.907Z,43.40
2018-07-02T16:39:38.801Z,41.40
2018-07-02T16:42:06.693Z,41.60
2018-07-02T16:44:34.621Z,41.10
2018-07-02T16:47:02.481Z,42.50
2018-07-02T16:49:30.714Z,43.70
2018-07-02T16:51:58.673Z,46.00
2018-07-02T16:59:23.013Z,46.10
2018-07-02T17:01:51.273Z,44.60
2018-07-02T17:06:46.965Z,42.20
2018-07-02T17:09:14.913Z,43.30
2018-07-02T17:11:43.759Z,45.00
2018-07-02T17:14:12.374Z,44.30
2018-07-02T17:16:41.220Z,46.60
2018-07-02T17:19:12.755Z,49.00
2018-07-02T17:21:40.732Z,49.90
2018-07-02T17:24:09.513Z,47.80
2018-07-02T17:26:37.743Z,51.90
2018-07-02T17:29:06.279Z,51.00
2018-07-02T17:31:34.230Z,49.20
2018-07-02T17:34:02.767Z,49.00
2018-07-02T17:36:31.035Z,50.40
2018-07-02T17:38:58.927Z,52.70
2018-07-02T17:41:26.863Z,53.30
2018-07-02T17:46:22.632Z,49.60
2018-07-02T17:48:50.602Z,49.70
2018-07-02T17:51:18.523Z,50.50
2018-07-02T17:53:46.414Z,51.40
2018-07-02T17:58:42.089Z,51.90
2018-07-02T18:01:10.046Z,52.20
2018-07-02T18:08:33.782Z,52.20
2018-07-02T18:11:01.899Z,52.00
2018-07-02T18:13:29.827Z,52.40
2018-07-02T18:18:25.726Z,52.40
2018-07-02T18:20:53.630Z,51.70
2018-07-02T18:23:21.555Z,51.30
2018-07-02T18:25:49.494Z,52.40
2018-07-02T18:30:45.359Z,52.10
2018-07-02T18:33:13.644Z,51.70
2018-07-02T18:35:42.330Z,51.00
2018-07-02T18:38:10.336Z,51.20
2018-07-02T18:40:39.224Z,51.00
2018-07-02T18:43:07.219Z,51.90
2018-07-02T18:45:35.195Z,51.60
2018-07-02T18:48:03.476Z,51.80
2018-07-02T18:53:00.181Z,52.20
2018-07-02T18:55:28.674Z,56.30
2018-07-02T18:57:56.566Z,59.70
2018-07-02T19:00:24.568Z,59.80
2018-07-02T19:02:52.495Z,58.20
2018-07-02T19:05:20.473Z,58.40
2018-07-02T19:07:48.416Z,58.40
2018-07-02T19:10:16.314Z,57.40
2018-07-02T19:15:11.998Z,60.00
2018-07-02T19:17:39.988Z,61.30
2018-07-02T19:20:07.918Z,61.80
2018-07-02T19:25:05.241Z,62.90
2018-07-02T19:27:33.261Z,59.40
2018-07-02T19:30:01.208Z,58.90
2018-07-02T19:32:29.503Z,60.30
2018-07-02T19:34:57.426Z,61.40
2018-07-02T19:37:26.101Z,62.70
2018-07-02T19:39:53.998Z,63.80
2018-07-02T19:42:22.699Z,64.80
2018-07-02T19:47:18.435Z,67.30
2018-07-02T19:49:46.627Z,67.40
2018-07-02T19:52:15.248Z,68.00
2018-07-02T19:54:43.154Z,67.90
2018-07-02T19:59:39.626Z,69.60
2018-07-02T20:02:07.665Z,69.20
2018-07-02T20:04:35.619Z,69.80
2018-07-02T20:07:04.102Z,70.00
2018-07-02T20:09:32.730Z,70.70
2018-07-02T20:12:00.785Z,70.50
2018-07-02T20:14:28.984Z,70.40
2018-07-02T20:16:56.958Z,70.50
2018-07-02T20:19:24.913Z,70.80
2018-07-02T20:21:52.853Z,71.40
2018-07-02T20:24:20.955Z,72.20
2018-07-02T20:26:50.125Z,72.10
2018-07-02T20:29:18.090Z,72.90
2018-07-02T20:31:46.308Z,73.20
2018-07-02T20:34:14.210Z,73.50
2018-07-02T20:36:42.353Z,73.70
2018-07-02T20:39:11.235Z,74.00
2018-07-02T20:41:39.307Z,73.80
2018-07-02T20:44:07.352Z,73.70
2018-07-02T20:46:35.249Z,73.80
2018-07-02T20:49:04.559Z,73.60
2018-07-02T20:51:32.700Z,73.60
2018-07-02T20:54:00.782Z,73.80
2018-07-02T20:56:28.681Z,74.50
2018-07-02T20:58:56.601Z,75.20
2018-07-02T21:01:24.574Z,75.30
2018-07-02T21:03:52.513Z,75.80
2018-07-02T21:06:20.978Z,75.80
2018-07-02T21:08:48.896Z,76.30
2018-07-02T21:13:46.168Z,76.80
2018-07-02T21:16:14.844Z,77.10
2018-07-02T21:18:43.058Z,77.40
2018-07-02T21:21:11.026Z,78.10
2018-07-02T21:23:38.922Z,77.90
2018-07-02T21:26:06.888Z,78.00
2018-07-02T21:28:34.849Z,77.90
2018-07-02T21:31:03.495Z,78.30
2018-07-02T21:33:31.402Z,78.50
2018-07-02T21:35:59.309Z,78.50
2018-07-02T21:43:22.925Z,79.70
2018-07-02T21:48:18.973Z,80.70
2018-07-02T21:50:46.850Z,80.30
2018-07-02T21:53:14.786Z,79.90
2018-07-02T21:58:10.455Z,79.80
2018-07-02T22:00:43.036Z,79.00
2018-07-02T22:03:10.943Z,79.60
2018-07-02T22:05:38.885Z,80.30
2018-07-02T22:08:06.870Z,81.10
2018-07-02T22:10:34.894Z,81.30
2018-07-02T22:13:03.275Z,80.90
2018-07-02T22:15:31.315Z,81.20
2018-07-02T22:17:59.229Z,82.50
2018-07-02T22:20:27.371Z,82.90
2018-07-02T22:25:23.387Z,83.10
2018-07-02T22:27:51.319Z,83.20
2018-07-02T22:30:19.214Z,82.60
2018-07-02T22:32:47.105Z,82.10
2018-07-02T22:35:15.045Z,82.50
2018-07-02T22:37:43.627Z,82.70
2018-07-02T22:40:12.349Z,82.70
2018-07-02T22:42:40.262Z,82.70
2018-07-02T22:45:08.247Z,81.70
2018-07-02T22:47:36.195Z,81.80
2018-07-02T22:50:04.363Z,82.00
2018-07-02T22:52:32.251Z,82.30
2018-07-02T22:55:00.187Z,82.60
2018-07-02T22:57:28.098Z,82.30
2018-07-02T22:59:55.974Z,82.20
2018-07-02T23:02:23.901Z,82.30
2018-07-02T23:04:51.902Z,82.20
2018-07-02T23:07:19.807Z,82.40
2018-07-02T23:09:47.690Z,82.60
2018-07-02T23:12:15.632Z,83.30
2018-07-02T23:14:44.503Z,82.90
2018-07-02T23:17:12.452Z,82.50
2018-07-02T23:19:40.412Z,83.00
2018-07-02T23:22:08.338Z,83.20
2018-07-02T23:27:04.203Z,83.80
2018-07-02T23:29:32.733Z,83.70
2018-07-02T23:32:00.978Z,83.80
2018-07-02T23:34:28.872Z,83.70
2018-07-02T23:36:56.830Z,84.10
2018-07-02T23:39:25.247Z,84.10
2018-07-02T23:46:48.907Z,84.10
2018-07-02T23:49:17.446Z,83.00
2018-07-02T23:54:13.415Z,83.50
2018-07-02T23:56:41.308Z,83.50
2018-07-02T23:59:10.374Z,83.40
